createdAt,value
2023-05-21T00:00:53.847Z,96.02
2023-05-21T00:03:27.070Z,95.76
2023-05-21T00:05:55.705Z,95.78
2023-05-21T00:08:25.777Z,94.68
2023-05-21T00:10:54.366Z,95.62
2023-05-21T00:13:22.971Z,95.48
2023-05-21T00:15:52.495Z,95.36
2023-05-21T00:18:22.284Z,96.09
2023-05-21T00:20:50.921Z,95.77
2023-05-21T00:23:19.574Z,95.17
2023-05-21T00:25:50.559Z,95.21
2023-05-21T00:28:19.437Z,95.02
2023-05-21T00:30:48.515Z,94.14
2023-05-21T00:33:17.229Z,94.83
2023-05-21T00:35:46.281Z,95.37
2023-05-21T00:38:14.836Z,95.62
2023-05-21T00:40:43.476Z,95.69
2023-05-21T00:43:14.363Z,96.39
2023-05-21T00:45:44.510Z,95.75
2023-05-21T00:48:14.863Z,96.55
2023-05-21T00:50:45.004Z,96.79
2023-05-21T00:53:15.436Z,97.14
2023-05-21T00:55:44.135Z,97.03
2023-05-21T00:58:14.224Z,96.80
2023-05-21T01:00:44.269Z,97.73
2023-05-21T01:03:14.927Z,98.16
2023-05-21T01:05:45.164Z,98.44
2023-05-21T01:08:15.090Z,97.75
2023-05-21T01:10:44.503Z,97.60
2023-05-21T01:13:15.043Z,98.58
2023-05-21T01:15:45.485Z,98.24
2023-05-21T01:18:16.174Z,97.80
2023-05-21T01:20:48.267Z,98.46
2023-05-21T01:23:19.074Z,98.67
2023-05-21T01:25:48.328Z,98.88
2023-05-21T01:28:16.943Z,98.99
2023-05-21T01:30:45.928Z,98.85
2023-05-21T01:33:20.297Z,100.00
2023-05-21T01:35:55.284Z,99.61
2023-05-21T01:38:32.338Z,99.45
2023-05-21T01:41:08.130Z,100.00
2023-05-21T01:43:40.427Z,99.90
2023-05-21T01:46:11.407Z,100.00
2023-05-21T01:48:42.116Z,100.00
2023-05-21T01:51:11.577Z,100.00
2023-05-21T01:53:42.819Z,100.00
2023-05-21T01:56:11.499Z,100.00
2023-05-21T01:58:41.021Z,100.00
2023-05-21T02:01:09.632Z,100.00
2023-05-21T02:03:38.684Z,100.00
2023-05-21T02:06:07.723Z,100.00
2023-05-21T02:08:36.621Z,100.00
2023-05-21T02:11:06.750Z,100.00
2023-05-21T02:13:40.694Z,100.00
2023-05-21T02:16:11.850Z,100.00
2023-05-21T02:18:42.143Z,100.00
2023-05-21T02:21:12.153Z,100.00
2023-05-21T02:23:42.133Z,100.00
2023-05-21T02:26:12.521Z,100.00
2023-05-21T02:28:41.227Z,100.00
2023-05-21T02:31:09.610Z,100.00
2023-05-21T02:33:38.255Z,100.00
2023-05-21T02:36:12.972Z,100.00
2023-05-21T02:38:43.806Z,100.00
2023-05-21T02:41:13.882Z,100.00
2023-05-21T02:43:42.574Z,100.00
2023-05-21T02:46:11.442Z,100.00
2023-05-21T02:48:40.183Z,100.00
2023-05-21T02:51:08.973Z,100.00
2023-05-21T02:53:37.769Z,100.00
2023-05-21T02:56:07.088Z,100.00
2023-05-21T02:58:37.233Z,100.00
2023-05-21T03:01:05.955Z,100.00
2023-05-21T03:03:34.848Z,100.00
2023-05-21T03:06:05.018Z,100.00
2023-05-21T03:08:33.825Z,100.00
2023-05-21T03:11:02.458Z,100.00
2023-05-21T03:13:31.336Z,100.00
2023-05-21T03:16:01.040Z,100.00
2023-05-21T03:18:29.423Z,100.00
2023-05-21T03:20:59.010Z,100.00
2023-05-21T03:23:28.051Z,100.00
2023-05-21T03:25:56.646Z,100.00
2023-05-21T03:28:25.347Z,100.00
2023-05-21T03:30:54.817Z,100.00
2023-05-21T03:33:43.577Z,100.00
2023-05-21T03:36:25.625Z,100.00
2023-05-21T03:38:54.248Z,100.00
2023-05-21T03:41:23.229Z,100.00
2023-05-21T03:43:57.279Z,100.00
2023-05-21T03:46:30.046Z,100.00
2023-05-21T03:49:09.706Z,100.00
2023-05-21T03:51:40.213Z,100.00
2023-05-21T03:54:11.176Z,100.00
2023-05-21T03:56:40.663Z,100.00
2023-05-21T03:59:09.359Z,100.00
2023-05-21T04:01:39.127Z,100.00
2023-05-21T04:04:11.335Z,100.00
2023-05-21T04:06:42.427Z,100.00
2023-05-21T04:09:12.435Z,100.00
2023-05-21T04:11:41.137Z,100.00
2023-05-21T04:14:09.960Z,100.00
2023-05-21T04:16:38.875Z,100.00
2023-05-21T04:19:08.380Z,100.00
2023-05-21T04:21:38.531Z,100.00
2023-05-21T04:24:08.632Z,100.00
2023-05-21T04:26:57.411Z,100.00
2023-05-21T04:29:25.964Z,100.00
2023-05-21T04:31:55.302Z,100.00
2023-05-21T04:34:24.026Z,100.00
2023-05-21T04:36:54.271Z,100.00
2023-05-21T04:39:22.973Z,100.00
2023-05-21T04:41:54.653Z,100.00
2023-05-21T04:44:24.098Z,100.00
2023-05-21T04:46:54.881Z,100.00
2023-05-21T04:49:23.844Z,100.00
2023-05-21T04:51:53.619Z,100.00
2023-05-21T04:54:22.297Z,100.00
2023-05-21T04:56:52.129Z,100.00
2023-05-21T04:59:21.730Z,100.00
2023-05-21T05:01:50.306Z,100.00
2023-05-21T05:04:18.681Z,100.00
2023-05-21T05:06:47.388Z,100.00
2023-05-21T05:09:18.346Z,100.00
2023-05-21T05:11:46.694Z,100.00
2023-05-21T05:14:16.172Z,100.00
2023-05-21T05:16:48.268Z,100.00
2023-05-21T05:19:18.175Z,100.00
2023-05-21T05:21:47.894Z,100.00
2023-05-21T05:24:17.638Z,100.00
2023-05-21T05:26:47.123Z,100.00
2023-05-21T05:29:15.925Z,100.00
2023-05-21T05:31:44.672Z,100.00
2023-05-21T05:34:13.688Z,100.00
2023-05-21T05:36:42.397Z,100.00
2023-05-21T05:39:11.121Z,100.00
2023-05-21T05:41:42.183Z,100.00
2023-05-21T05:44:11.182Z,100.00
2023-05-21T05:46:39.839Z,100.00
2023-05-21T05:49:09.066Z,100.00
2023-05-21T05:51:37.720Z,100.00
2023-05-21T05:54:06.901Z,100.00
2023-05-21T05:56:36.788Z,100.00
2023-05-21T05:59:08.199Z,100.00
2023-05-21T06:01:40.072Z,100.00
2023-05-21T06:04:08.971Z,100.00
2023-05-21T06:06:38.776Z,100.00
2023-05-21T06:09:07.566Z,100.00
2023-05-21T06:11:36.292Z,100.00
2023-05-21T06:14:04.979Z,100.00
2023-05-21T06:16:37.235Z,100.00
2023-05-21T06:19:06.171Z,100.00
2023-05-21T06:21:34.839Z,100.00
2023-05-21T06:24:05.830Z,100.00
2023-05-21T06:26:34.238Z,100.00
2023-05-21T06:29:03.883Z,100.00
2023-05-21T06:31:34.908Z,100.00
2023-05-21T06:34:04.096Z,100.00
2023-05-21T06:36:32.909Z,100.00
2023-05-21T06:39:01.678Z,99.61
2023-05-21T06:41:30.443Z,100.00
2023-05-21T06:44:04.172Z,100.00
2023-05-21T06:47:06.705Z,100.00
2023-05-21T06:49:35.215Z,99.80
2023-05-21T06:52:04.264Z,100.00
2023-05-21T06:54:33.054Z,100.00
2023-05-21T06:57:02.858Z,99.06
2023-05-21T06:59:33.172Z,99.25
2023-05-21T07:02:04.453Z,99.15
2023-05-21T07:04:35.978Z,100.00
2023-05-21T07:07:04.970Z,100.00
2023-05-21T07:09:34.120Z,99.90
2023-05-21T07:12:03.270Z,97.82
2023-05-21T07:14:32.048Z,97.25
2023-05-21T07:17:01.047Z,97.32
2023-05-21T07:19:29.955Z,94.59
2023-05-21T07:21:59.855Z,91.91
2023-05-21T07:24:29.636Z,91.53
2023-05-21T07:26:58.299Z,92.24
2023-05-21T07:29:27.027Z,90.13
2023-05-21T07:31:56.198Z,89.05
2023-05-21T07:34:24.957Z,86.51
2023-05-21T07:36:54.168Z,83.18
2023-05-21T07:39:25.019Z,85.35
2023-05-21T07:41:54.472Z,78.99
2023-05-21T07:44:24.461Z,82.97
2023-05-21T07:46:53.312Z,79.41
2023-05-21T07:49:21.684Z,76.45
2023-05-21T07:51:50.690Z,78.37
2023-05-21T07:54:19.846Z,73.84
2023-05-21T07:56:49.858Z,74.99
2023-05-21T07:59:48.471Z,73.70
2023-05-21T08:02:17.565Z,72.99
2023-05-21T08:04:46.365Z,72.68
2023-05-21T08:07:19.897Z,71.66
2023-05-21T08:09:48.678Z,70.71
2023-05-21T08:12:19.814Z,68.18
2023-05-21T08:14:48.638Z,66.26
2023-05-21T08:17:18.344Z,61.70
2023-05-21T08:19:46.822Z,64.55
2023-05-21T08:22:16.551Z,63.16
2023-05-21T08:24:48.326Z,61.64
2023-05-21T08:27:18.135Z,63.93
2023-05-21T08:29:47.143Z,67.40
2023-05-21T08:32:16.223Z,69.00
2023-05-21T08:34:45.173Z,67.27
2023-05-21T08:37:33.873Z,68.27
2023-05-21T08:40:13.456Z,68.63
2023-05-21T08:42:48.329Z,67.37
2023-05-21T08:45:23.657Z,67.53
2023-05-21T08:47:58.194Z,69.05
2023-05-21T08:50:30.574Z,68.14
2023-05-21T08:53:09.796Z,69.33
2023-05-21T08:55:45.047Z,67.81
2023-05-21T08:58:15.781Z,68.27
2023-05-21T09:00:44.575Z,68.31
2023-05-21T09:03:16.095Z,70.22
2023-05-21T09:05:46.843Z,69.57
2023-05-21T09:08:18.933Z,71.93
2023-05-21T09:10:59.092Z,67.08
2023-05-21T09:13:38.245Z,66.09
2023-05-21T09:16:11.764Z,65.20
2023-05-21T09:18:40.548Z,63.12
2023-05-21T09:21:27.550Z,61.35
2023-05-21T09:24:01.810Z,58.80
2023-05-21T09:26:31.629Z,53.71
2023-05-21T09:29:05.508Z,54.60
2023-05-21T09:31:34.247Z,53.48
2023-05-21T09:34:03.229Z,54.51
2023-05-21T09:36:35.365Z,55.58
2023-05-21T09:39:04.947Z,55.07
2023-05-21T09:41:35.582Z,55.47
2023-05-21T09:44:06.932Z,53.28
2023-05-21T09:46:41.008Z,52.56
2023-05-21T09:49:26.290Z,50.52
2023-05-21T09:51:57.404Z,52.05
2023-05-21T09:54:32.589Z,48.10
2023-05-21T09:57:03.456Z,49.33
2023-05-21T09:59:40.460Z,50.99
2023-05-21T10:02:21.316Z,45.34
2023-05-21T10:04:54.235Z,45.66
2023-05-21T10:07:27.195Z,42.46
2023-05-21T10:09:58.246Z,45.04
2023-05-21T10:12:30.050Z,48.78
2023-05-21T10:15:04.129Z,49.93
2023-05-21T10:17:33.377Z,46.69
2023-05-21T10:20:04.988Z,51.25
2023-05-21T10:22:34.290Z,51.59
2023-05-21T10:25:05.862Z,47.03
2023-05-21T10:27:36.087Z,46.97
2023-05-21T10:30:08.706Z,43.32
2023-05-21T10:32:37.078Z,44.06
2023-05-21T10:35:07.813Z,43.15
2023-05-21T10:37:36.827Z,42.48
2023-05-21T10:40:08.447Z,41.41
2023-05-21T10:43:17.234Z,37.96
2023-05-21T10:46:25.771Z,39.56
2023-05-21T10:49:16.820Z,41.71
2023-05-21T10:52:00.331Z,39.85
2023-05-21T10:55:06.627Z,38.97
2023-05-21T10:58:31.187Z,38.19
2023-05-21T11:01:03.037Z,39.30
2023-05-21T11:03:37.252Z,38.32
2023-05-21T11:06:08.570Z,36.12
2023-05-21T11:08:37.881Z,38.52
2023-05-21T11:11:07.962Z,36.10
2023-05-21T11:13:51.555Z,38.16
2023-05-21T11:16:25.894Z,37.17
2023-05-21T11:19:04.413Z,36.87
2023-05-21T11:21:35.906Z,37.91
2023-05-21T11:24:08.414Z,37.38
2023-05-21T11:27:17.562Z,41.07
2023-05-21T11:29:47.354Z,36.85
2023-05-21T11:32:20.682Z,37.70
2023-05-21T11:34:49.734Z,39.91
2023-05-21T11:37:33.503Z,37.61
2023-05-21T11:40:36.952Z,37.41
2023-05-21T11:43:05.849Z,37.68
2023-05-21T11:45:34.615Z,38.10
2023-05-21T11:48:07.533Z,35.76
2023-05-21T11:50:39.465Z,37.29
2023-05-21T11:53:09.078Z,37.25
2023-05-21T11:55:43.384Z,36.91
2023-05-21T11:58:16.660Z,38.43
2023-05-21T12:00:45.337Z,36.68
2023-05-21T12:03:18.239Z,32.74
2023-05-21T12:05:47.586Z,35.72
2023-05-21T12:08:25.825Z,37.33
2023-05-21T12:10:59.736Z,33.63
2023-05-21T12:13:29.048Z,33.86
2023-05-21T12:15:57.892Z,35.28
2023-05-21T12:18:28.413Z,35.25
2023-05-21T12:20:57.452Z,41.65
2023-05-21T12:23:26.364Z,38.32
2023-05-21T12:25:55.199Z,38.47
2023-05-21T12:28:24.930Z,40.22
2023-05-21T12:30:54.172Z,40.98
2023-05-21T12:33:26.116Z,38.43
2023-05-21T12:35:56.687Z,37.46
2023-05-21T12:38:26.616Z,37.99
2023-05-21T12:40:55.415Z,41.21
2023-05-21T12:43:23.959Z,40.75
2023-05-21T12:45:54.425Z,40.60
2023-05-21T12:48:23.038Z,39.41
2023-05-21T12:50:54.833Z,39.13
2023-05-21T12:53:23.428Z,42.04
2023-05-21T12:55:56.347Z,39.49
2023-05-21T12:58:24.749Z,39.99
2023-05-21T13:00:57.034Z,37.78
2023-05-21T13:03:25.545Z,35.04
2023-05-21T13:06:01.358Z,35.28
2023-05-21T13:08:30.271Z,39.63
2023-05-21T13:10:58.674Z,37.01
2023-05-21T13:13:27.491Z,36.05
2023-05-21T13:15:56.460Z,34.13
2023-05-21T13:18:25.243Z,34.02
2023-05-21T13:20:54.048Z,36.03
2023-05-21T13:23:24.701Z,33.87
2023-05-21T13:25:53.359Z,35.17
2023-05-21T13:28:23.691Z,38.53
2023-05-21T13:30:55.027Z,38.69
2023-05-21T13:33:23.847Z,37.34
2023-05-21T13:35:52.465Z,37.94
2023-05-21T13:38:21.156Z,35.12
2023-05-21T13:40:51.772Z,37.01
2023-05-21T13:43:20.413Z,36.38
2023-05-21T13:45:49.966Z,36.14
2023-05-21T13:48:18.554Z,35.52
2023-05-21T13:50:47.223Z,37.59
2023-05-21T13:53:15.985Z,39.59
2023-05-21T13:55:44.701Z,41.87
2023-05-21T13:58:14.378Z,40.27
2023-05-21T14:00:43.166Z,41.47
2023-05-21T14:03:12.269Z,43.60
2023-05-21T14:05:41.091Z,43.26
2023-05-21T14:08:10.046Z,43.12
2023-05-21T14:10:38.658Z,44.49
2023-05-21T14:13:18.465Z,46.78
2023-05-21T14:15:49.628Z,45.61
2023-05-21T14:18:18.500Z,45.41
2023-05-21T14:20:46.888Z,45.19
2023-05-21T14:23:15.843Z,45.50
2023-05-21T14:25:44.518Z,45.91
2023-05-21T14:28:13.311Z,43.48
2023-05-21T14:30:42.068Z,44.68
2023-05-21T14:33:13.375Z,43.94
2023-05-21T14:35:44.151Z,43.05
2023-05-21T14:38:14.725Z,44.48
2023-05-21T14:40:43.405Z,45.99
2023-05-21T14:43:12.112Z,44.68
2023-05-21T14:45:40.916Z,45.21
2023-05-21T14:48:11.814Z,45.42
2023-05-21T14:50:41.015Z,47.45
2023-05-21T14:53:11.134Z,45.07
2023-05-21T14:55:40.437Z,45.52
2023-05-21T14:58:09.677Z,43.53
2023-05-21T15:00:39.728Z,44.51
2023-05-21T15:03:08.650Z,45.28
2023-05-21T15:05:38.918Z,41.45
2023-05-21T15:08:09.672Z,40.99
2023-05-21T15:10:38.456Z,42.19
2023-05-21T15:13:07.138Z,42.78
2023-05-21T15:15:36.514Z,38.32
2023-05-21T15:18:05.574Z,40.73
2023-05-21T15:20:34.267Z,40.83
2023-05-21T15:23:16.078Z,39.81
2023-05-21T15:25:44.915Z,39.28
2023-05-21T15:28:13.672Z,38.66
2023-05-21T15:30:42.658Z,39.56
2023-05-21T15:33:11.302Z,38.52
2023-05-21T15:35:40.135Z,40.57
2023-05-21T15:38:10.142Z,41.38
2023-05-21T15:40:42.940Z,44.34
2023-05-21T15:43:11.588Z,45.09
2023-05-21T15:45:40.396Z,47.82
2023-05-21T15:48:09.312Z,49.10
2023-05-21T15:50:38.204Z,48.61
2023-05-21T15:53:06.857Z,49.51
2023-05-21T15:55:37.128Z,50.59
2023-05-21T15:58:05.632Z,50.63
2023-05-21T16:00:34.844Z,51.01
2023-05-21T16:03:03.728Z,50.94
2023-05-21T16:05:32.475Z,52.12
2023-05-21T16:08:01.142Z,51.63
2023-05-21T16:10:29.828Z,51.83
2023-05-21T16:13:00.416Z,51.54
2023-05-21T16:15:32.302Z,52.28
2023-05-21T16:18:00.975Z,52.36
2023-05-21T16:20:30.981Z,51.61
2023-05-21T16:22:59.891Z,52.39
2023-05-21T16:25:28.753Z,51.68
2023-05-21T16:27:57.369Z,53.12
2023-05-21T16:30:27.202Z,51.97
2023-05-21T16:32:55.882Z,52.35
2023-05-21T16:35:24.548Z,53.01
2023-05-21T16:37:53.233Z,54.07
2023-05-21T16:40:21.829Z,54.61
2023-05-21T16:42:50.774Z,55.96
2023-05-21T16:45:21.420Z,56.32
2023-05-21T16:47:52.834Z,55.62
2023-05-21T16:50:22.114Z,55.71
2023-05-21T16:52:50.789Z,56.65
2023-05-21T16:55:19.461Z,56.83
2023-05-21T16:57:48.189Z,56.31
2023-05-21T17:00:17.788Z,55.45
2023-05-21T17:02:46.838Z,56.24
2023-05-21T17:05:17.050Z,55.44
2023-05-21T17:07:45.681Z,55.27
2023-05-21T17:10:14.420Z,56.52
2023-05-21T17:12:43.038Z,55.65
2023-05-21T17:15:11.972Z,56.57
2023-05-21T17:17:40.361Z,56.41
2023-05-21T17:20:10.309Z,56.94
2023-05-21T17:22:40.390Z,56.93
2023-05-21T17:25:10.084Z,56.70
2023-05-21T17:27:38.770Z,57.89
2023-05-21T17:30:10.005Z,56.51
2023-05-21T17:32:38.696Z,58.63
2023-05-21T17:35:08.865Z,57.88
2023-05-21T17:37:37.357Z,58.27
2023-05-21T17:40:09.642Z,58.86
2023-05-21T17:42:38.381Z,58.73
2023-05-21T17:45:07.901Z,59.42
2023-05-21T17:47:36.606Z,59.98
2023-05-21T17:50:05.862Z,61.33
2023-05-21T17:52:34.528Z,60.85
2023-05-21T17:55:03.774Z,61.16
2023-05-21T17:57:33.734Z,62.03
2023-05-21T18:00:02.396Z,63.21
2023-05-21T18:02:40.635Z,62.42
2023-05-21T18:05:09.475Z,63.78
2023-05-21T18:07:38.533Z,65.20
2023-05-21T18:10:08.224Z,65.55
2023-05-21T18:12:38.352Z,66.00
2023-05-21T18:15:08.050Z,67.47
2023-05-21T18:17:36.719Z,68.47
2023-05-21T18:20:06.220Z,68.30
2023-05-21T18:22:36.655Z,69.99
2023-05-21T18:25:05.937Z,70.08
2023-05-21T18:27:34.266Z,70.69
2023-05-21T18:30:06.398Z,69.95
2023-05-21T18:32:38.633Z,70.72
2023-05-21T18:35:10.610Z,71.31
2023-05-21T18:37:42.149Z,71.90
2023-05-21T18:40:12.161Z,72.34
2023-05-21T18:42:40.813Z,73.21
2023-05-21T18:45:13.000Z,73.96
2023-05-21T18:47:42.997Z,74.98
2023-05-21T18:50:15.356Z,74.81
2023-05-21T18:52:44.259Z,76.02
2023-05-21T18:55:12.531Z,75.78
2023-05-21T18:57:41.252Z,77.49
2023-05-21T19:00:12.886Z,77.06
2023-05-21T19:02:43.095Z,77.67
2023-05-21T19:05:12.986Z,78.47
2023-05-21T19:07:42.164Z,78.92
2023-05-21T19:10:12.361Z,78.69
2023-05-21T19:12:41.940Z,78.79
2023-05-21T19:15:13.120Z,79.33
2023-05-21T19:17:41.822Z,80.25
2023-05-21T19:20:11.471Z,79.04
2023-05-21T19:22:40.232Z,80.20
2023-05-21T19:25:09.801Z,81.29
2023-05-21T19:27:38.229Z,81.25
2023-05-21T19:30:08.178Z,80.10
2023-05-21T19:32:37.966Z,80.74
2023-05-21T19:35:07.697Z,80.08
2023-05-21T19:37:36.258Z,81.10
2023-05-21T19:40:06.107Z,80.65
2023-05-21T19:42:34.471Z,80.33
2023-05-21T19:45:03.174Z,79.50
2023-05-21T19:47:32.280Z,77.63
2023-05-21T19:50:02.299Z,76.04
2023-05-21T19:52:31.000Z,76.86
2023-05-21T19:55:04.497Z,77.74
2023-05-21T19:57:33.465Z,78.42
2023-05-21T20:00:02.196Z,79.48
2023-05-21T20:02:41.027Z,77.89
2023-05-21T20:05:11.807Z,78.62
2023-05-21T20:07:41.312Z,79.38
2023-05-21T20:10:10.379Z,80.58
2023-05-21T20:12:39.807Z,79.73
2023-05-21T20:15:09.585Z,79.17
2023-05-21T20:17:39.861Z,77.86
2023-05-21T20:20:13.173Z,78.84
2023-05-21T20:22:41.832Z,74.43
2023-05-21T20:25:11.005Z,73.06
2023-05-21T20:27:39.786Z,73.49
2023-05-21T20:30:10.801Z,73.23
2023-05-21T20:32:39.681Z,73.41
2023-05-21T20:35:11.311Z,72.58
2023-05-21T20:37:40.032Z,72.74
2023-05-21T20:40:10.829Z,73.93
2023-05-21T20:42:41.675Z,72.57
2023-05-21T20:45:12.863Z,72.83
2023-05-21T20:47:42.511Z,73.56
2023-05-21T20:50:13.383Z,73.53
2023-05-21T20:52:45.531Z,73.74
2023-05-21T20:55:15.369Z,73.59
2023-05-21T20:57:44.137Z,73.85
2023-05-21T21:00:16.223Z,74.60
2023-05-21T21:02:45.209Z,74.68
2023-05-21T21:05:16.462Z,74.89
2023-05-21T21:07:45.672Z,76.09
2023-05-21T21:10:14.376Z,76.34
2023-05-21T21:12:43.062Z,76.96
2023-05-21T21:15:11.818Z,76.46
2023-05-21T21:17:40.665Z,76.24
2023-05-21T21:20:11.558Z,77.21
2023-05-21T21:22:41.488Z,77.34
2023-05-21T21:25:10.943Z,76.78
2023-05-21T21:27:39.955Z,76.90
2023-05-21T21:30:10.261Z,75.91
2023-05-21T21:32:38.784Z,76.28
2023-05-21T21:35:08.197Z,76.14
2023-05-21T21:37:36.940Z,76.96
2023-05-21T21:40:08.990Z,78.81
2023-05-21T21:42:37.625Z,78.10
2023-05-21T21:45:07.233Z,78.97
2023-05-21T21:47:36.008Z,78.44
2023-05-21T21:50:04.722Z,79.56
2023-05-21T21:52:33.383Z,80.73
2023-05-21T21:55:02.036Z,80.79
2023-05-21T21:57:32.023Z,80.68
2023-05-21T22:00:00.705Z,80.84
2023-05-21T22:02:29.586Z,81.02
2023-05-21T22:04:58.079Z,81.56
2023-05-21T22:07:28.815Z,81.06
2023-05-21T22:09:57.489Z,81.76
2023-05-21T22:12:26.564Z,81.55
2023-05-21T22:14:56.914Z,81.26
2023-05-21T22:17:25.973Z,80.93
2023-05-21T22:19:54.332Z,81.14
2023-05-21T22:22:23.586Z,80.69
2023-05-21T22:24:52.459Z,81.72
2023-05-21T22:27:21.165Z,79.51
2023-05-21T22:29:50.006Z,80.06
2023-05-21T22:32:20.330Z,80.52
2023-05-21T22:34:48.951Z,79.55
2023-05-21T22:37:17.916Z,81.23
2023-05-21T22:39:46.810Z,81.57
2023-05-21T22:42:15.566Z,81.51
2023-05-21T22:44:43.964Z,81.52
2023-05-21T22:47:14.006Z,81.04
2023-05-21T22:49:45.502Z,82.39
2023-05-21T22:52:14.599Z,82.01
2023-05-21T22:54:43.383Z,82.23
2023-05-21T22:57:12.064Z,82.49
2023-05-21T22:59:40.898Z,81.81
2023-05-21T23:02:09.374Z,83.30
2023-05-21T23:04:43.781Z,83.24
2023-05-21T23:07:14.568Z,83.51
2023-05-21T23:09:43.176Z,83.35
2023-05-21T23:12:12.157Z,83.84
2023-05-21T23:14:40.768Z,84.16
2023-05-21T23:17:09.799Z,84.87
2023-05-21T23:19:39.185Z,84.90
2023-05-21T23:22:08.054Z,85.60
2023-05-21T23:24:38.984Z,85.32
2023-05-21T23:27:07.725Z,86.06
2023-05-21T23:29:36.438Z,86.61
2023-05-21T23:32:06.078Z,85.63
2023-05-21T23:34:34.441Z,86.72
2023-05-21T23:37:03.110Z,87.44
2023-05-21T23:39:31.819Z,87.39
2023-05-21T23:42:01.634Z,88.06
2023-05-21T23:44:29.968Z,89.22
2023-05-21T23:46:58.611Z,88.93
2023-05-21T23:49:26.957Z,88.81
2023-05-21T23:51:56.341Z,89.15
2023-05-21T23:54:25.034Z,89.71
2023-05-21T23:56:53.657Z,90.09
2023-05-21T23:59:23.696Z,89.62
